Terminal Aerodrome Forecast
Issued by NWS

Home | Current Version | Previous Version | Text Only | Print | Product List | Glossary Off
Versions: 1 2 3 4 5 6 7 8 9 10 11 12 13 14 15 16 17 18 19 20 21 22 23 24 25 26 27 28 29 30 31 32 33 34 35

000
FTUS43 KLOT 152300
TAFMDW
TAF
KMDW 152326Z 1600/1624 13010KT 3SM -DZ BR OVC007
     FM160300 15007KT 2SM -DZ BR VCSH OVC004
     FM160900 VRB04KT 1 1/2SM -SHRADZ BR OVC003
     FM161500 29011KT 5SM -SHRADZ BR OVC007
     FM161900 31013G22KT P6SM OVC015=

USA.gov is the U.S. government's official web portal to all federal, state and local government web resources and services.